sensor_id;sensor_type;location;lat;lon;timestamp;temperature;humidity
55648;DHT22;45266;48.756;9.246;2023-07-31T00:00:15;13.40;99.90
55648;DHT22;45266;48.756;9.246;2023-07-31T00:01:20;13.40;99.90
55648;DHT22;45266;48.756;9.246;2023-07-31T00:02:27;13.40;99.90
55648;DHT22;45266;48.756;9.246;2023-07-31T00:03:33;13.30;99.90
55648;DHT22;45266;48.756;9.246;2023-07-31T00:04:38;13.40;99.90
55648;DHT22;45266;48.756;9.246;2023-07-31T00:05:44;13.40;99.90
55648;DHT22;45266;48.756;9.246;2023-07-31T00:06:50;13.30;99.90
55648;DHT22;45266;48.756;9.246;2023-07-31T00:07:55;13.30;99.90
55648;DHT22;45266;48.756;9.246;2023-07-31T00:09:00;13.30;99.90
55648;DHT22;45266;48.756;9.246;2023-07-31T00:10:08;13.30;99.90
55648;DHT22;45266;48.756;9.246;2023-07-31T00:11:15;13.30;99.90
55648;DHT22;45266;48.756;9.246;2023-07-31T00:12:17;13.30;99.90
55648;DHT22;45266;48.756;9.246;2023-07-31T00:13:19;13.20;99.90
55648;DHT22;45266;48.756;9.246;2023-07-31T00:14:22;13.20;99.90
55648;DHT22;45266;48.756;9.246;2023-07-31T00:15:24;13.20;99.90
55648;DHT22;45266;48.756;9.246;2023-07-31T00:16:28;13.20;99.90
55648;DHT22;45266;48.756;9.246;2023-07-31T00:17:32;13.20;99.90
55648;DHT22;45266;48.756;9.246;2023-07-31T00:18:35;13.10;99.90
55648;DHT22;45266;48.756;9.246;2023-07-31T00:19:38;13.10;99.90
55648;DHT22;45266;48.756;9.246;2023-07-31T00:20:41;13.10;99.90
55648;DHT22;45266;48.756;9.246;2023-07-31T00:21:47;13.10;99.90
55648;DHT22;45266;48.756;9.246;2023-07-31T00:22:57;13.10;99.90
55648;DHT22;45266;48.756;9.246;2023-07-31T00:24:08;13.10;99.90
55648;DHT22;45266;48.756;9.246;2023-07-31T00:25:17;13.00;99.90
55648;DHT22;45266;48.756;9.246;2023-07-31T00:26:29;13.00;99.90
55648;DHT22;45266;48.756;9.246;2023-07-31T00:27:38;13.00;99.90
55648;DHT22;45266;48.756;9.246;2023-07-31T00:28:41;13.00;99.90
55648;DHT22;45266;48.756;9.246;2023-07-31T00:29:44;13.00;99.90
55648;DHT22;45266;48.756;9.246;2023-07-31T00:30:50;13.00;99.90
55648;DHT22;45266;48.756;9.246;2023-07-31T00:31:57;13.00;99.90
55648;DHT22;45266;48.756;9.246;2023-07-31T00:33:01;13.00;99.90
55648;DHT22;45266;48.756;9.246;2023-07-31T00:34:05;13.00;99.90
55648;DHT22;45266;48.756;9.246;2023-07-31T00:35:08;13.00;99.90
55648;DHT22;45266;48.756;9.246;2023-07-31T00:36:11;13.00;99.90
55648;DHT22;45266;48.756;9.246;2023-07-31T00:37:13;13.00;99.90
55648;DHT22;45266;48.756;9.246;2023-07-31T00:38:21;13.00;99.90
55648;DHT22;45266;48.756;9.246;2023-07-31T00:39:35;13.00;99.90
55648;DHT22;45266;48.756;9.246;2023-07-31T00:40:37;13.00;99.90
55648;DHT22;45266;48.756;9.246;2023-07-31T00:41:40;13.00;99.90
55648;DHT22;45266;48.756;9.246;2023-07-31T00:42:45;13.00;99.90
55648;DHT22;45266;48.756;9.246;2023-07-31T00:43:52;13.00;99.90
55648;DHT22;45266;48.756;9.246;2023-07-31T00:45:02;13.00;99.90
55648;DHT22;45266;48.756;9.246;2023-07-31T00:46:10;13.00;99.90
55648;DHT22;45266;48.756;9.246;2023-07-31T00:47:24;12.90;99.90
55648;DHT22;45266;48.756;9.246;2023-07-31T00:48:26;13.00;99.90
55648;DHT22;45266;48.756;9.246;2023-07-31T00:49:29;12.90;99.90
55648;DHT22;45266;48.756;9.246;2023-07-31T00:50:31;12.90;99.90
55648;DHT22;45266;48.756;9.246;2023-07-31T00:51:33;13.00;99.90
55648;DHT22;45266;48.756;9.246;2023-07-31T00:52:40;12.90;99.90
55648;DHT22;45266;48.756;9.246;2023-07-31T00:53:47;13.00;99.90
55648;DHT22;45266;48.756;9.246;2023-07-31T00:54:52;12.90;99.90
55648;DHT22;45266;48.756;9.246;2023-07-31T00:55:56;12.90;99.90
55648;DHT22;45266;48.756;9.246;2023-07-31T00:57:01;12.90;99.90
55648;DHT22;45266;48.756;9.246;2023-07-31T00:58:04;12.90;99.90
55648;DHT22;45266;48.756;9.246;2023-07-31T00:59:16;12.90;99.90
55648;DHT22;45266;48.756;9.246;2023-07-31T01:00:22;12.90;99.90
55648;DHT22;45266;48.756;9.246;2023-07-31T01:01:29;12.90;99.90
55648;DHT22;45266;48.756;9.246;2023-07-31T01:02:32;12.90;99.90
55648;DHT22;45266;48.756;9.246;2023-07-31T01:03:35;12.90;99.90
55648;DHT22;45266;48.756;9.246;2023-07-31T01:04:37;12.90;99.90
55648;DHT22;45266;48.756;9.246;2023-07-31T01:05:56;12.90;99.90
55648;DHT22;45266;48.756;9.246;2023-07-31T01:07:31;12.80;99.90
55648;DHT22;45266;48.756;9.246;2023-07-31T01:08:58;12.90;99.90
55648;DHT22;45266;48.756;9.246;2023-07-31T01:11:39;12.90;99.90
55648;DHT22;45266;48.756;9.246;2023-07-31T01:12:49;12.90;99.90
55648;DHT22;45266;48.756;9.246;2023-07-31T01:13:57;12.90;99.90
55648;DHT22;45266;48.756;9.246;2023-07-31T01:15:09;12.90;99.90
55648;DHT22;45266;48.756;9.246;2023-07-31T01:16:20;12.80;99.90
55648;DHT22;45266;48.756;9.246;2023-07-31T01:17:26;12.90;99.90
55648;DHT22;45266;48.756;9.246;2023-07-31T01:18:32;12.80;99.90
55648;DHT22;45266;48.756;9.246;2023-07-31T01:19:38;12.80;99.90
55648;DHT22;45266;48.756;9.246;2023-07-31T01:20:43;12.80;99.90
55648;DHT22;45266;48.756;9.246;2023-07-31T01:22:16;12.80;99.90
55648;DHT22;45266;48.756;9.246;2023-07-31T01:26:12;12.70;99.90
55648;DHT22;45266;48.756;9.246;2023-07-31T01:27:24;12.70;99.90
55648;DHT22;45266;48.756;9.246;2023-07-31T01:30:34;12.60;99.90
55648;DHT22;45266;48.756;9.246;2023-07-31T01:31:48;12.70;99.90
55648;DHT22;45266;48.756;9.246;2023-07-31T01:32:54;12.70;99.90
55648;DHT22;45266;48.756;9.246;2023-07-31T01:34:01;12.60;99.90
55648;DHT22;45266;48.756;9.246;2023-07-31T01:35:08;12.70;99.90
55648;DHT22;45266;48.756;9.246;2023-07-31T01:36:12;12.60;99.90
55648;DHT22;45266;48.756;9.246;2023-07-31T01:37:20;12.70;99.90
55648;DHT22;45266;48.756;9.246;2023-07-31T01:38:30;12.50;99.90
55648;DHT22;45266;48.756;9.246;2023-07-31T01:39:38;12.60;99.90
55648;DHT22;45266;48.756;9.246;2023-07-31T01:40:41;12.60;99.90
55648;DHT22;45266;48.756;9.246;2023-07-31T01:41:45;12.60;99.90
55648;DHT22;45266;48.756;9.246;2023-07-31T01:42:50;12.60;99.90
55648;DHT22;45266;48.756;9.246;2023-07-31T01:43:58;12.60;99.90
55648;DHT22;45266;48.756;9.246;2023-07-31T01:45:00;12.60;99.90
55648;DHT22;45266;48.756;9.246;2023-07-31T01:46:02;12.60;99.90
55648;DHT22;45266;48.756;9.246;2023-07-31T01:47:06;12.60;99.90
55648;DHT22;45266;48.756;9.246;2023-07-31T01:48:09;12.60;99.90
55648;DHT22;45266;48.756;9.246;2023-07-31T01:49:12;12.60;99.90
55648;DHT22;45266;48.756;9.246;2023-07-31T01:50:15;12.50;99.90
55648;DHT22;45266;48.756;9.246;2023-07-31T01:51:18;12.60;99.90
55648;DHT22;45266;48.756;9.246;2023-07-31T01:52:25;12.60;99.90
55648;DHT22;45266;48.756;9.246;2023-07-31T01:53:33;12.50;99.90
55648;DHT22;45266;48.756;9.246;2023-07-31T01:54:38;12.50;99.90
55648;DHT22;45266;48.756;9.246;2023-07-31T01:55:41;12.50;99.90
55648;DHT22;45266;48.756;9.246;2023-07-31T01:56:44;12.50;99.90
55648;DHT22;45266;48.756;9.246;2023-07-31T01:57:49;12.50;99.90
55648;DHT22;45266;48.756;9.246;2023-07-31T01:58:51;12.50;99.90
55648;DHT22;45266;48.756;9.246;2023-07-31T02:00:05;12.50;99.90
55648;DHT22;45266;48.756;9.246;2023-07-31T02:01:11;12.50;99.90
55648;DHT22;45266;48.756;9.246;2023-07-31T02:02:38;12.50;99.90
55648;DHT22;45266;48.756;9.246;2023-07-31T02:03:40;12.40;99.90
55648;DHT22;45266;48.756;9.246;2023-07-31T02:04:44;12.40;99.90
55648;DHT22;45266;48.756;9.246;2023-07-31T02:05:50;12.50;99.90
55648;DHT22;45266;48.756;9.246;2023-07-31T02:06:59;12.40;99.90
55648;DHT22;45266;48.756;9.246;2023-07-31T02:08:08;12.40;99.90
55648;DHT22;45266;48.756;9.246;2023-07-31T02:09:15;12.40;99.90
55648;DHT22;45266;48.756;9.246;2023-07-31T02:10:20;12.40;99.90
55648;DHT22;45266;48.756;9.246;2023-07-31T02:11:28;12.40;99.90
55648;DHT22;45266;48.756;9.246;2023-07-31T02:12:31;12.40;99.90
55648;DHT22;45266;48.756;9.246;2023-07-31T02:13:36;12.40;99.90
55648;DHT22;45266;48.756;9.246;2023-07-31T02:14:38;12.40;99.90
55648;DHT22;45266;48.756;9.246;2023-07-31T02:15:44;12.40;99.90
55648;DHT22;45266;48.756;9.246;2023-07-31T02:16:52;12.40;99.90
55648;DHT22;45266;48.756;9.246;2023-07-31T02:17:54;12.30;99.90
55648;DHT22;45266;48.756;9.246;2023-07-31T02:18:59;12.40;99.90
55648;DHT22;45266;48.756;9.246;2023-07-31T02:20:03;12.40;99.90
55648;DHT22;45266;48.756;9.246;2023-07-31T02:21:07;12.40;99.90
55648;DHT22;45266;48.756;9.246;2023-07-31T02:22:09;12.40;99.90
55648;DHT22;45266;48.756;9.246;2023-07-31T02:23:12;12.40;99.90
55648;DHT22;45266;48.756;9.246;2023-07-31T02:24:24;12.30;99.90
55648;DHT22;45266;48.756;9.246;2023-07-31T02:25:27;12.30;99.90
55648;DHT22;45266;48.756;9.246;2023-07-31T02:26:29;12.30;99.90
55648;DHT22;45266;48.756;9.246;2023-07-31T02:27:32;12.30;99.90
55648;DHT22;45266;48.756;9.246;2023-07-31T02:28:36;12.30;99.90
55648;DHT22;45266;48.756;9.246;2023-07-31T02:29:40;12.30;99.90
55648;DHT22;45266;48.756;9.246;2023-07-31T02:30:44;12.30;99.90
55648;DHT22;45266;48.756;9.246;2023-07-31T02:31:48;12.30;99.90
55648;DHT22;45266;48.756;9.246;2023-07-31T02:32:53;12.30;99.90
55648;DHT22;45266;48.756;9.246;2023-07-31T02:33:57;12.40;99.90
55648;DHT22;45266;48.756;9.246;2023-07-31T02:35:00;12.30;99.90
55648;DHT22;45266;48.756;9.246;2023-07-31T02:36:03;12.30;99.90
55648;DHT22;45266;48.756;9.246;2023-07-31T02:37:05;12.30;99.90
55648;DHT22;45266;48.756;9.246;2023-07-31T02:38:10;12.30;99.90
55648;DHT22;45266;48.756;9.246;2023-07-31T02:39:17;12.30;99.90
55648;DHT22;45266;48.756;9.246;2023-07-31T02:40:21;12.30;99.90
55648;DHT22;45266;48.756;9.246;2023-07-31T02:41:23;12.30;99.90
55648;DHT22;45266;48.756;9.246;2023-07-31T02:42:27;12.30;99.90
55648;DHT22;45266;48.756;9.246;2023-07-31T02:43:32;12.30;99.90
55648;DHT22;45266;48.756;9.246;2023-07-31T02:44:56;12.40;99.90
55648;DHT22;45266;48.756;9.246;2023-07-31T02:45:59;12.30;99.90
55648;DHT22;45266;48.756;9.246;2023-07-31T02:47:01;12.30;99.90
55648;DHT22;45266;48.756;9.246;2023-07-31T02:48:05;12.30;99.90
55648;DHT22;45266;48.756;9.246;2023-07-31T02:49:07;12.40;99.90
55648;DHT22;45266;48.756;9.246;2023-07-31T02:50:12;12.40;99.90
55648;DHT22;45266;48.756;9.246;2023-07-31T02:51:21;12.40;99.90
55648;DHT22;45266;48.756;9.246;2023-07-31T02:52:30;12.40;99.90
55648;DHT22;45266;48.756;9.246;2023-07-31T02:53:37;12.40;99.90
55648;DHT22;45266;48.756;9.246;2023-07-31T02:54:39;12.40;99.90
55648;DHT22;45266;48.756;9.246;2023-07-31T02:55:43;12.40;99.90
55648;DHT22;45266;48.756;9.246;2023-07-31T02:56:48;12.40;99.90
55648;DHT22;45266;48.756;9.246;2023-07-31T02:57:52;12.40;99.90
55648;DHT22;45266;48.756;9.246;2023-07-31T02:58:54;12.40;99.90
55648;DHT22;45266;48.756;9.246;2023-07-31T02:59:56;12.40;99.90
55648;DHT22;45266;48.756;9.246;2023-07-31T03:00:59;12.40;99.90
55648;DHT22;45266;48.756;9.246;2023-07-31T03:02:03;12.40;99.90
55648;DHT22;45266;48.756;9.246;2023-07-31T03:03:08;12.30;99.90
55648;DHT22;45266;48.756;9.246;2023-07-31T03:04:11;12.30;99.90
55648;DHT22;45266;48.756;9.246;2023-07-31T03:05:13;12.30;99.90
55648;DHT22;45266;48.756;9.246;2023-07-31T03:06:15;12.30;99.90
55648;DHT22;45266;48.756;9.246;2023-07-31T03:07:18;12.30;99.90
55648;DHT22;45266;48.756;9.246;2023-07-31T03:08:20;12.30;99.90
55648;DHT22;45266;48.756;9.246;2023-07-31T03:09:25;12.30;99.90
55648;DHT22;45266;48.756;9.246;2023-07-31T03:10:34;12.30;99.90
55648;DHT22;45266;48.756;9.246;2023-07-31T03:11:42;12.20;99.90
55648;DHT22;45266;48.756;9.246;2023-07-31T03:12:47;12.20;99.90
55648;DHT22;45266;48.756;9.246;2023-07-31T03:13:51;12.20;99.90
55648;DHT22;45266;48.756;9.246;2023-07-31T03:14:54;12.20;99.90
55648;DHT22;45266;48.756;9.246;2023-07-31T03:15:57;12.20;99.90
55648;DHT22;45266;48.756;9.246;2023-07-31T03:17:01;12.30;99.90
55648;DHT22;45266;48.756;9.246;2023-07-31T03:18:11;12.20;99.90
55648;DHT22;45266;48.756;9.246;2023-07-31T03:19:22;12.20;99.90
55648;DHT22;45266;48.756;9.246;2023-07-31T03:20:31;12.20;99.90
55648;DHT22;45266;48.756;9.246;2023-07-31T03:21:33;12.20;99.90
55648;DHT22;45266;48.756;9.246;2023-07-31T03:22:36;12.20;99.90
55648;DHT22;45266;48.756;9.246;2023-07-31T03:23:40;12.20;99.90
55648;DHT22;45266;48.756;9.246;2023-07-31T03:24:42;12.20;99.90
55648;DHT22;45266;48.756;9.246;2023-07-31T03:26:08;12.20;99.90
55648;DHT22;45266;48.756;9.246;2023-07-31T03:27:12;12.20;99.90
55648;DHT22;45266;48.756;9.246;2023-07-31T03:28:15;12.20;99.90
55648;DHT22;45266;48.756;9.246;2023-07-31T03:29:20;12.20;99.90
55648;DHT22;45266;48.756;9.246;2023-07-31T03:30:26;12.20;99.90
55648;DHT22;45266;48.756;9.246;2023-07-31T03:31:33;12.10;99.90
55648;DHT22;45266;48.756;9.246;2023-07-31T03:32:37;12.10;99.90
55648;DHT22;45266;48.756;9.246;2023-07-31T03:33:39;12.10;99.90
55648;DHT22;45266;48.756;9.246;2023-07-31T03:34:42;12.20;99.90
55648;DHT22;45266;48.756;9.246;2023-07-31T03:35:44;12.10;99.90
55648;DHT22;45266;48.756;9.246;2023-07-31T03:36:47;12.10;99.90
55648;DHT22;45266;48.756;9.246;2023-07-31T03:37:50;12.10;99.90
55648;DHT22;45266;48.756;9.246;2023-07-31T03:38:52;12.10;99.90
55648;DHT22;45266;48.756;9.246;2023-07-31T03:39:58;12.10;99.90
55648;DHT22;45266;48.756;9.246;2023-07-31T03:41:01;12.10;99.90
55648;DHT22;45266;48.756;9.246;2023-07-31T03:42:13;12.10;99.90
55648;DHT22;45266;48.756;9.246;2023-07-31T03:43:18;12.10;99.90
55648;DHT22;45266;48.756;9.246;2023-07-31T03:44:31;12.10;99.90
55648;DHT22;45266;48.756;9.246;2023-07-31T03:45:39;12.10;99.90
55648;DHT22;45266;48.756;9.246;2023-07-31T03:47:05;12.00;99.90
55648;DHT22;45266;48.756;9.246;2023-07-31T03:48:15;12.10;99.90
55648;DHT22;45266;48.756;9.246;2023-07-31T03:49:41;12.00;99.90
55648;DHT22;45266;48.756;9.246;2023-07-31T03:50:50;12.10;99.90
55648;DHT22;45266;48.756;9.246;2023-07-31T03:51:59;12.10;99.90
55648;DHT22;45266;48.756;9.246;2023-07-31T03:53:07;12.10;99.90
55648;DHT22;45266;48.756;9.246;2023-07-31T03:54:32;12.10;99.90
55648;DHT22;45266;48.756;9.246;2023-07-31T03:55:34;12.10;99.90
55648;DHT22;45266;48.756;9.246;2023-07-31T03:56:42;12.10;99.90
55648;DHT22;45266;48.756;9.246;2023-07-31T03:58:11;12.10;99.90
55648;DHT22;45266;48.756;9.246;2023-07-31T03:59:25;12.10;99.90
55648;DHT22;45266;48.756;9.246;2023-07-31T04:00:28;12.10;99.90
55648;DHT22;45266;48.756;9.246;2023-07-31T04:01:30;12.10;99.90
55648;DHT22;45266;48.756;9.246;2023-07-31T04:02:38;12.10;99.90
55648;DHT22;45266;48.756;9.246;2023-07-31T04:04:05;12.10;99.90
55648;DHT22;45266;48.756;9.246;2023-07-31T04:05:15;12.10;99.90
55648;DHT22;45266;48.756;9.246;2023-07-31T04:06:23;12.10;99.90
55648;DHT22;45266;48.756;9.246;2023-07-31T04:07:27;12.10;99.90
55648;DHT22;45266;48.756;9.246;2023-07-31T04:08:29;12.20;99.90
55648;DHT22;45266;48.756;9.246;2023-07-31T04:09:35;12.20;99.90
55648;DHT22;45266;48.756;9.246;2023-07-31T04:10:51;12.20;99.90
55648;DHT22;45266;48.756;9.246;2023-07-31T04:12:02;12.20;99.90
55648;DHT22;45266;48.756;9.246;2023-07-31T04:13:18;12.20;99.90
55648;DHT22;45266;48.756;9.246;2023-07-31T04:14:31;12.30;99.90
55648;DHT22;45266;48.756;9.246;2023-07-31T04:15:41;12.30;99.90
55648;DHT22;45266;48.756;9.246;2023-07-31T04:16:54;12.30;99.90
55648;DHT22;45266;48.756;9.246;2023-07-31T04:17:59;12.40;99.90
55648;DHT22;45266;48.756;9.246;2023-07-31T04:19:01;12.40;99.90
55648;DHT22;45266;48.756;9.246;2023-07-31T04:20:05;12.40;99.90
55648;DHT22;45266;48.756;9.246;2023-07-31T04:21:08;12.40;99.90
55648;DHT22;45266;48.756;9.246;2023-07-31T04:22:10;12.50;99.90
55648;DHT22;45266;48.756;9.246;2023-07-31T04:23:12;12.50;99.90
55648;DHT22;45266;48.756;9.246;2023-07-31T04:24:14;12.60;99.90
55648;DHT22;45266;48.756;9.246;2023-07-31T04:25:17;12.50;99.90
55648;DHT22;45266;48.756;9.246;2023-07-31T04:26:27;12.60;99.90
55648;DHT22;45266;48.756;9.246;2023-07-31T04:27:31;12.60;99.90
55648;DHT22;45266;48.756;9.246;2023-07-31T04:28:38;12.60;99.90
55648;DHT22;45266;48.756;9.246;2023-07-31T04:29:52;12.60;99.90
55648;DHT22;45266;48.756;9.246;2023-07-31T04:30:54;12.70;99.90
55648;DHT22;45266;48.756;9.246;2023-07-31T04:31:56;12.70;99.90
55648;DHT22;45266;48.756;9.246;2023-07-31T04:32:58;12.70;99.90
55648;DHT22;45266;48.756;9.246;2023-07-31T04:34:01;12.70;99.90
55648;DHT22;45266;48.756;9.246;2023-07-31T04:35:04;12.80;99.90
55648;DHT22;45266;48.756;9.246;2023-07-31T04:36:07;12.80;99.90
55648;DHT22;45266;48.756;9.246;2023-07-31T04:37:09;12.90;99.90
55648;DHT22;45266;48.756;9.246;2023-07-31T04:38:11;12.90;99.90
55648;DHT22;45266;48.756;9.246;2023-07-31T04:39:13;12.90;99.90
55648;DHT22;45266;48.756;9.246;2023-07-31T04:40:23;12.90;99.90
55648;DHT22;45266;48.756;9.246;2023-07-31T04:41:29;13.00;99.90
55648;DHT22;45266;48.756;9.246;2023-07-31T04:42:32;13.00;99.90
55648;DHT22;45266;48.756;9.246;2023-07-31T04:43:34;13.00;99.90
55648;DHT22;45266;48.756;9.246;2023-07-31T04:44:41;13.00;99.90
55648;DHT22;45266;48.756;9.246;2023-07-31T04:45:52;13.00;99.90
55648;DHT22;45266;48.756;9.246;2023-07-31T04:47:10;13.10;99.90
55648;DHT22;45266;48.756;9.246;2023-07-31T04:48:15;13.10;99.90
55648;DHT22;45266;48.756;9.246;2023-07-31T04:49:19;13.10;99.90
55648;DHT22;45266;48.756;9.246;2023-07-31T04:50:25;13.10;99.90
55648;DHT22;45266;48.756;9.246;2023-07-31T04:51:31;13.20;99.90
55648;DHT22;45266;48.756;9.246;2023-07-31T04:52:35;13.20;99.90
55648;DHT22;45266;48.756;9.246;2023-07-31T04:53:41;13.20;99.90
55648;DHT22;45266;48.756;9.246;2023-07-31T04:54:46;13.10;99.90
55648;DHT22;45266;48.756;9.246;2023-07-31T04:55:49;13.20;99.90
55648;DHT22;45266;48.756;9.246;2023-07-31T04:56:54;13.20;99.90
55648;DHT22;45266;48.756;9.246;2023-07-31T04:58:00;13.20;99.90
55648;DHT22;45266;48.756;9.246;2023-07-31T04:59:05;13.30;99.90
55648;DHT22;45266;48.756;9.246;2023-07-31T05:00:08;13.30;99.90
55648;DHT22;45266;48.756;9.246;2023-07-31T05:01:12;13.30;99.90
55648;DHT22;45266;48.756;9.246;2023-07-31T05:02:35;13.30;99.90
55648;DHT22;45266;48.756;9.246;2023-07-31T05:03:38;13.40;99.90
55648;DHT22;45266;48.756;9.246;2023-07-31T05:04:40;13.40;99.90
55648;DHT22;45266;48.756;9.246;2023-07-31T05:05:42;13.40;99.90
55648;DHT22;45266;48.756;9.246;2023-07-31T05:06:44;13.40;99.90
55648;DHT22;45266;48.756;9.246;2023-07-31T05:07:49;13.40;99.90
55648;DHT22;45266;48.756;9.246;2023-07-31T05:08:52;13.40;99.90
55648;DHT22;45266;48.756;9.246;2023-07-31T05:09:56;13.50;99.90
55648;DHT22;45266;48.756;9.246;2023-07-31T05:11:03;13.50;99.90
55648;DHT22;45266;48.756;9.246;2023-07-31T05:12:06;13.50;99.90
55648;DHT22;45266;48.756;9.246;2023-07-31T05:13:10;13.50;99.90
55648;DHT22;45266;48.756;9.246;2023-07-31T05:14:15;13.50;99.90
55648;DHT22;45266;48.756;9.246;2023-07-31T05:15:28;13.60;99.90
55648;DHT22;45266;48.756;9.246;2023-07-31T05:16:41;13.60;99.90
55648;DHT22;45266;48.756;9.246;2023-07-31T05:17:52;13.60;99.90
55648;DHT22;45266;48.756;9.246;2023-07-31T05:18:59;13.60;99.90
55648;DHT22;45266;48.756;9.246;2023-07-31T05:20:01;13.70;99.90
55648;DHT22;45266;48.756;9.246;2023-07-31T05:21:04;13.70;99.90
55648;DHT22;45266;48.756;9.246;2023-07-31T05:22:09;13.70;99.90
55648;DHT22;45266;48.756;9.246;2023-07-31T05:23:19;13.70;99.90
55648;DHT22;45266;48.756;9.246;2023-07-31T05:24:25;13.70;99.90
55648;DHT22;45266;48.756;9.246;2023-07-31T05:25:29;13.80;99.90
55648;DHT22;45266;48.756;9.246;2023-07-31T05:26:33;13.80;99.90
55648;DHT22;45266;48.756;9.246;2023-07-31T05:27:47;13.80;99.90
55648;DHT22;45266;48.756;9.246;2023-07-31T05:28:57;13.80;99.90
55648;DHT22;45266;48.756;9.246;2023-07-31T05:30:03;13.90;99.90
55648;DHT22;45266;48.756;9.246;2023-07-31T05:31:09;13.90;99.90
55648;DHT22;45266;48.756;9.246;2023-07-31T05:32:14;13.90;99.90
55648;DHT22;45266;48.756;9.246;2023-07-31T05:33:19;14.00;99.90
55648;DHT22;45266;48.756;9.246;2023-07-31T05:34:26;14.00;99.90
55648;DHT22;45266;48.756;9.246;2023-07-31T05:35:32;14.00;99.90
55648;DHT22;45266;48.756;9.246;2023-07-31T05:36:42;14.10;99.90
55648;DHT22;45266;48.756;9.246;2023-07-31T05:37:51;14.10;99.90
55648;DHT22;45266;48.756;9.246;2023-07-31T05:39:04;14.10;99.90
55648;DHT22;45266;48.756;9.246;2023-07-31T05:40:15;14.20;99.90
55648;DHT22;45266;48.756;9.246;2023-07-31T05:41:17;14.20;99.90
55648;DHT22;45266;48.756;9.246;2023-07-31T05:42:20;14.30;99.90
55648;DHT22;45266;48.756;9.246;2023-07-31T05:43:27;14.30;99.90
55648;DHT22;45266;48.756;9.246;2023-07-31T05:44:39;14.40;99.90
55648;DHT22;45266;48.756;9.246;2023-07-31T05:45:46;14.40;99.90
55648;DHT22;45266;48.756;9.246;2023-07-31T05:46:52;14.50;99.90
55648;DHT22;45266;48.756;9.246;2023-07-31T05:47:57;14.60;99.90
55648;DHT22;45266;48.756;9.246;2023-07-31T05:49:00;14.70;99.90
55648;DHT22;45266;48.756;9.246;2023-07-31T05:50:04;14.80;99.90
55648;DHT22;45266;48.756;9.246;2023-07-31T05:51:09;14.80;99.90
55648;DHT22;45266;48.756;9.246;2023-07-31T05:52:15;14.90;99.90
55648;DHT22;45266;48.756;9.246;2023-07-31T05:53:33;15.00;99.90
55648;DHT22;45266;48.756;9.246;2023-07-31T05:54:53;15.20;99.90
55648;DHT22;45266;48.756;9.246;2023-07-31T05:56:09;15.40;99.90
55648;DHT22;45266;48.756;9.246;2023-07-31T05:57:27;15.50;99.90
55648;DHT22;45266;48.756;9.246;2023-07-31T05:58:40;15.70;99.90
55648;DHT22;45266;48.756;9.246;2023-07-31T05:59:47;15.80;99.90
55648;DHT22;45266;48.756;9.246;2023-07-31T06:00:52;15.90;99.90
55648;DHT22;45266;48.756;9.246;2023-07-31T06:01:57;16.00;99.90
55648;DHT22;45266;48.756;9.246;2023-07-31T06:03:05;16.10;99.90
55648;DHT22;45266;48.756;9.246;2023-07-31T06:04:22;16.10;99.90
55648;DHT22;45266;48.756;9.246;2023-07-31T06:05:32;16.20;99.90
55648;DHT22;45266;48.756;9.246;2023-07-31T06:06:35;16.20;99.90
55648;DHT22;45266;48.756;9.246;2023-07-31T06:07:45;16.30;99.90
55648;DHT22;45266;48.756;9.246;2023-07-31T06:08:52;16.30;99.90
55648;DHT22;45266;48.756;9.246;2023-07-31T06:09:54;16.30;99.90
55648;DHT22;45266;48.756;9.246;2023-07-31T06:10:56;16.40;99.90
55648;DHT22;45266;48.756;9.246;2023-07-31T06:12:00;16.40;99.90
55648;DHT22;45266;48.756;9.246;2023-07-31T06:13:04;16.50;99.90
55648;DHT22;45266;48.756;9.246;2023-07-31T06:14:07;16.50;99.90
55648;DHT22;45266;48.756;9.246;2023-07-31T06:15:09;16.50;99.90
55648;DHT22;45266;48.756;9.246;2023-07-31T06:16:11;16.60;99.90
55648;DHT22;45266;48.756;9.246;2023-07-31T06:17:17;16.60;99.90
55648;DHT22;45266;48.756;9.246;2023-07-31T06:18:25;16.70;99.90
55648;DHT22;45266;48.756;9.246;2023-07-31T06:19:28;16.80;99.90
55648;DHT22;45266;48.756;9.246;2023-07-31T06:20:37;16.80;99.90
55648;DHT22;45266;48.756;9.246;2023-07-31T06:21:54;16.90;99.90
55648;DHT22;45266;48.756;9.246;2023-07-31T06:23:10;16.90;99.90
55648;DHT22;45266;48.756;9.246;2023-07-31T06:24:23;17.00;99.90
55648;DHT22;45266;48.756;9.246;2023-07-31T06:25:29;17.00;99.90
55648;DHT22;45266;48.756;9.246;2023-07-31T06:26:39;17.10;99.90
55648;DHT22;45266;48.756;9.246;2023-07-31T06:27:50;17.10;99.90
55648;DHT22;45266;48.756;9.246;2023-07-31T06:28:59;17.20;99.90
55648;DHT22;45266;48.756;9.246;2023-07-31T06:30:04;17.20;99.90
55648;DHT22;45266;48.756;9.246;2023-07-31T06:31:06;17.30;99.90
55648;DHT22;45266;48.756;9.246;2023-07-31T06:32:13;17.30;99.90
55648;DHT22;45266;48.756;9.246;2023-07-31T06:33:25;17.40;99.90
55648;DHT22;45266;48.756;9.246;2023-07-31T06:34:38;17.40;99.90
55648;DHT22;45266;48.756;9.246;2023-07-31T06:35:50;17.50;99.90
55648;DHT22;45266;48.756;9.246;2023-07-31T06:36:57;17.60;99.90
55648;DHT22;45266;48.756;9.246;2023-07-31T06:38:07;17.70;99.90
55648;DHT22;45266;48.756;9.246;2023-07-31T06:39:16;17.80;99.90
55648;DHT22;45266;48.756;9.246;2023-07-31T06:40:25;17.90;99.90
55648;DHT22;45266;48.756;9.246;2023-07-31T06:41:30;18.10;99.90
55648;DHT22;45266;48.756;9.246;2023-07-31T06:42:32;18.10;99.90
55648;DHT22;45266;48.756;9.246;2023-07-31T06:43:36;18.10;99.90
55648;DHT22;45266;48.756;9.246;2023-07-31T06:44:45;18.20;99.90
55648;DHT22;45266;48.756;9.246;2023-07-31T06:46:07;18.30;99.90
55648;DHT22;45266;48.756;9.246;2023-07-31T06:47:13;18.40;99.90
55648;DHT22;45266;48.756;9.246;2023-07-31T06:48:21;18.40;99.90
55648;DHT22;45266;48.756;9.246;2023-07-31T06:49:30;18.50;99.90
55648;DHT22;45266;48.756;9.246;2023-07-31T06:50:34;18.60;99.90
55648;DHT22;45266;48.756;9.246;2023-07-31T06:51:39;18.70;99.90
55648;DHT22;45266;48.756;9.246;2023-07-31T06:52:45;18.70;99.90
55648;DHT22;45266;48.756;9.246;2023-07-31T06:53:50;18.80;99.90
55648;DHT22;45266;48.756;9.246;2023-07-31T06:55:32;18.90;99.90
55648;DHT22;45266;48.756;9.246;2023-07-31T06:56:38;19.00;99.90
55648;DHT22;45266;48.756;9.246;2023-07-31T06:57:46;19.00;99.90
55648;DHT22;45266;48.756;9.246;2023-07-31T06:58:54;19.00;99.90
55648;DHT22;45266;48.756;9.246;2023-07-31T07:00:10;19.10;99.90
55648;DHT22;45266;48.756;9.246;2023-07-31T07:01:21;19.10;99.90
55648;DHT22;45266;48.756;9.246;2023-07-31T07:02:30;19.20;99.90
55648;DHT22;45266;48.756;9.246;2023-07-31T07:03:34;19.30;99.90
55648;DHT22;45266;48.756;9.246;2023-07-31T07:04:39;19.30;99.90
55648;DHT22;45266;48.756;9.246;2023-07-31T07:05:42;19.40;99.90
55648;DHT22;45266;48.756;9.246;2023-07-31T07:06:51;19.50;99.60
55648;DHT22;45266;48.756;9.246;2023-07-31T07:08:00;19.50;99.90